• Join FlightAware (Why Join?)
  • Login
  • US Flag 
10:06PM EST


 

Airport Tracker/Info


-or-


 

Live Flight TrackerFlight Track Log ✈ N960DL ✈ 12-Jun-2013 ✈ KGRR - KDTW

Flight Track Log - Related Links

Times and Time Zones

All times are in EDT time to prevent confusion due to time zone crossing. See the N960DL flight status page for this flight to view local times or setup timezone preferences in your user account.

Time Position Orientation Groundspeed Altitude Reporting Facility
EDT Latitude Longitude Course Direction KTS MPH feet Rate Location/Type
06:21PM 42.9475 -85.5306 56° Northeast 209 241 3,300  Level Chicago Center
06:22PM 43.0106 -85.5286 North 231 266 5,700 1,920 Climbing Chicago Center
06:23PM 42.8794 -85.2328 63° Northeast  Level FlightAware Approximate
06:23PM 43.0722 -85.4797 30° Northeast 260 299 7,300  Level Chicago Center
06:24PM 42.9241 -85.1136 63° Northeast  Level FlightAware Approximate
06:24PM 43.0933 -85.3669 76° East 306 352 9,500  Level Chicago Center
06:25PM 42.9693 -84.9948 56° Northeast  Level FlightAware Approximate
06:25PM 43.1367 -85.2561 62° Northeast 327 376 11,200  Level Chicago Center
06:26PM 43.0159 -84.8778 69° East  Level FlightAware Approximate
06:26PM 43.2028 -85.1031 59° Northeast 381 438 13,600  Level Chicago Center
06:27PM 43.0616 -84.7601 56° Northeast  Level FlightAware Approximate
06:27PM 43.2600 -84.9650 60° Northeast 409 471 15,000  Level Chicago Center
06:29PM 43.3181 -84.8283 60° Northeast 416 479 15,000 -60 Level Chicago Center
06:30PM 43.3753 -84.7028 58° Northeast 393 452 14,900  Descending Chicago Center
06:31PM 43.3564 -84.5597 100° East 385 443 15,000  Climbing Chicago Center
06:32PM 43.2856 -84.4417 129° Southeast 398 458 15,000  Level Chicago Center
06:32PM 43.2181 -84.3411 133° Southeast 372 428 15,000  Level Cleveland Center
06:33PM 43.1408 -84.2167 130° Southeast 387 445 15,000  Level Cleveland Center
06:34PM 43.0672 -84.0989 131° Southeast 397 457 15,000  Level Cleveland Center
06:35PM 42.9936 -83.9811 130° Southeast 397 457 15,000  Level Cleveland Center
06:36PM 42.9219 -83.8694 131° Southeast 397 457 15,000  Level Cleveland Center
06:37PM 42.8500 -83.7550 131° Southeast 397 457 15,000 -120 Level Cleveland Center
06:38PM 42.7892 -83.6897 142° Southeast 382 440 14,800 -540 Descending Cleveland Center
06:39PM 42.7328 -83.7747 228° Southwest 189 217 14,000 -840 Descending Cleveland Center
06:40PM 42.7550 -83.8692 288° West 167 192 13,200 -540 Descending Cleveland Center
06:41PM 42.8247 -83.9181 333° Northwest 189 217 13,000 -540 Descending Cleveland Center
06:42PM 42.9047 -83.8883 15° North 225 259 12,200 -900 Descending Cleveland Center
06:43PM 42.9831 -83.8414 24° Northeast 265 305 11,300 -840 Descending Cleveland Center
06:44PM 43.0319 -83.8100 25° Northeast 309 356 10,900 -300 Descending Cleveland Center
06:44PM 43.0478 -83.7708 61° Northeast 279 321 11,000 60 Climbing Cleveland Center
06:45PM 43.0169 -83.6783 114° Southeast 338 389 11,000  Level Cleveland Center
06:46PM 42.9331 -83.6883 185° South 302 348 11,000  Level Cleveland Center
06:47PM 42.8464 -83.7322 200° South 230 265 11,000 -300 Level Cleveland Center
06:48PM 42.7675 -83.7256 176° South 307 353 10,400 -1,020 Descending Cleveland Center
06:49PM 42.6889 -83.7017 167° South 291 335 9,100 -840 Descending Cleveland Center
06:50PM 42.6367 -83.6258 133° Southeast 267 307 8,700 -960 Descending Cleveland Center
06:51PM 42.5972 -83.5447 123° Southeast 255 293 7,200 -900 Descending Cleveland Center
06:52PM 42.5806 -83.4594 105° East 259 298 7,000 -660 Descending Cleveland Center
06:53PM 42.5686 -83.3575 99° East 257 296 6,000 -1,140 Descending Cleveland Center
06:54PM 42.5622 -83.2669 95° East 237 273 4,800 -960 Descending Cleveland Center
06:55PM 42.5353 -83.1756 112° Southeast 210 242 4,000 -420 Descending Cleveland Center
06:56PM 42.4978 -83.1683 172° South 162 186 4,000  Level Cleveland Center
06:57PM 42.4556 -83.1975 207° Southwest 160 184 4,000  Level Cleveland Center
06:58PM 42.4194 -83.2242 209° Southwest 160 184 4,000  Level Cleveland Center
06:59PM 42.3811 -83.2536 210° Southwest 160 184 4,000 -480 Level Cleveland Center
07:01PM 42.3325 -83.2881 208° Southwest 165 190 3,100 -840 Descending Cleveland Center
07:01PM 42.3006 -83.3147 212° Southwest 167 192 2,300 -1,020 Descending Cleveland Center